createdAt,value
2022-10-16T00:01:06.165Z,87.44
2022-10-16T00:03:34.179Z,87.47
2022-10-16T00:06:02.766Z,87.84
2022-10-16T00:08:30.884Z,87.81
2022-10-16T00:11:05.152Z,87.75
2022-10-16T00:13:33.646Z,87.75
2022-10-16T00:16:02.363Z,87.66
2022-10-16T00:18:31.190Z,88.01
2022-10-16T00:21:04.724Z,87.77
2022-10-16T00:23:32.940Z,87.86
2022-10-16T00:26:04.156Z,87.56
2022-10-16T00:28:32.299Z,87.78
2022-10-16T00:31:00.455Z,87.72
2022-10-16T00:33:28.483Z,87.95
2022-10-16T00:35:56.461Z,87.68
2022-10-16T00:38:24.472Z,87.59
2022-10-16T00:40:52.484Z,87.52
2022-10-16T00:43:39.343Z,87.66
2022-10-16T00:46:15.427Z,87.53
2022-10-16T00:48:47.039Z,87.91
2022-10-16T00:51:15.823Z,87.89
2022-10-16T00:53:43.822Z,87.67
2022-10-16T00:56:11.863Z,88.04
2022-10-16T00:58:41.228Z,87.88
2022-10-16T01:01:09.343Z,88.12
2022-10-16T01:03:38.536Z,87.81
2022-10-16T01:06:18.836Z,87.98
2022-10-16T01:08:53.019Z,87.79
2022-10-16T01:11:25.693Z,87.70
2022-10-16T01:13:57.821Z,87.95
2022-10-16T01:16:33.974Z,88.01
2022-10-16T01:19:07.729Z,87.72
2022-10-16T01:21:38.199Z,87.94
2022-10-16T01:24:19.240Z,87.84
2022-10-16T01:27:14.420Z,88.03
2022-10-16T01:29:51.089Z,87.75
2022-10-16T01:32:22.677Z,87.93
2022-10-16T01:34:54.709Z,87.98
2022-10-16T01:37:30.228Z,88.05
2022-10-16T01:40:00.599Z,88.09
2022-10-16T01:42:32.576Z,88.04
2022-10-16T01:45:02.611Z,87.98
2022-10-16T01:47:32.096Z,87.92
2022-10-16T01:50:01.263Z,87.79
2022-10-16T01:52:31.167Z,87.90
2022-10-16T01:55:00.614Z,88.04
2022-10-16T01:57:28.957Z,87.76
2022-10-16T02:00:00.395Z,87.84
2022-10-16T02:02:32.130Z,87.80
2022-10-16T02:05:04.607Z,87.75
2022-10-16T02:07:32.699Z,87.82
2022-10-16T02:10:02.295Z,88.09
2022-10-16T02:12:33.492Z,87.77
2022-10-16T02:15:01.644Z,87.73
2022-10-16T02:17:31.255Z,88.05
2022-10-16T02:20:00.174Z,88.11
2022-10-16T02:22:30.059Z,87.98
2022-10-16T02:25:00.712Z,87.87
2022-10-16T02:27:33.375Z,88.10
2022-10-16T02:30:08.875Z,87.80
2022-10-16T02:32:41.994Z,87.75
2022-10-16T02:35:11.567Z,88.15
2022-10-16T02:37:40.816Z,87.91
2022-10-16T02:40:10.139Z,87.85
2022-10-16T02:42:40.643Z,87.71
2022-10-16T02:45:10.714Z,88.10
2022-10-16T02:47:40.121Z,88.09
2022-10-16T02:50:08.819Z,87.98
2022-10-16T02:52:36.853Z,87.93
2022-10-16T02:55:05.433Z,87.68
2022-10-16T02:57:33.648Z,87.99
2022-10-16T03:00:01.669Z,87.55
2022-10-16T03:02:29.689Z,87.96
2022-10-16T03:04:59.038Z,87.41
2022-10-16T03:07:27.508Z,87.78
2022-10-16T03:09:56.376Z,87.72
2022-10-16T03:12:24.426Z,87.58
2022-10-16T03:14:52.425Z,87.53
2022-10-16T03:17:20.424Z,87.83
2022-10-16T03:19:48.393Z,87.50
2022-10-16T03:22:17.831Z,87.54
2022-10-16T03:24:45.849Z,87.58
2022-10-16T03:27:13.855Z,87.52
2022-10-16T03:29:41.879Z,87.93
2022-10-16T03:32:09.878Z,87.59
2022-10-16T03:34:37.884Z,87.64
2022-10-16T03:37:06.299Z,87.54
2022-10-16T03:39:35.689Z,87.83
2022-10-16T03:42:03.747Z,87.83
2022-10-16T03:44:32.188Z,87.51
2022-10-16T03:47:00.166Z,87.48
2022-10-16T03:49:28.219Z,87.71
2022-10-16T03:51:56.221Z,87.42
2022-10-16T03:54:24.282Z,87.48
2022-10-16T03:56:53.631Z,87.67
2022-10-16T03:59:21.625Z,87.51
2022-10-16T04:01:49.657Z,87.52
2022-10-16T04:04:17.648Z,87.69
2022-10-16T04:06:45.663Z,87.42
2022-10-16T04:09:13.754Z,87.44
2022-10-16T04:11:41.737Z,87.76
2022-10-16T04:14:11.121Z,87.76
2022-10-16T04:16:39.109Z,87.64
2022-10-16T04:19:07.124Z,87.48
2022-10-16T04:21:35.102Z,87.33
2022-10-16T04:24:03.075Z,87.17
2022-10-16T04:26:31.282Z,87.66
2022-10-16T04:28:59.328Z,87.26
2022-10-16T04:31:28.945Z,87.68
2022-10-16T04:33:57.139Z,87.44
2022-10-16T04:36:28.276Z,87.46
2022-10-16T04:38:57.366Z,87.43
2022-10-16T04:41:25.441Z,87.44
2022-10-16T04:43:53.491Z,87.47
2022-10-16T04:46:21.490Z,87.65
2022-10-16T04:48:50.848Z,87.47
2022-10-16T04:51:19.822Z,87.22
2022-10-16T04:53:47.819Z,87.19
2022-10-16T04:56:16.359Z,87.43
2022-10-16T04:58:44.349Z,87.16
2022-10-16T05:01:12.396Z,86.98
2022-10-16T05:03:40.411Z,87.40
2022-10-16T05:06:09.788Z,87.01
2022-10-16T05:08:37.799Z,87.28
2022-10-16T05:11:06.098Z,87.13
2022-10-16T05:13:34.111Z,87.23
2022-10-16T05:16:02.105Z,87.01
2022-10-16T05:18:30.097Z,86.93
2022-10-16T05:20:58.366Z,87.00
2022-10-16T05:23:27.789Z,87.08
2022-10-16T05:25:56.576Z,87.07
2022-10-16T05:28:24.592Z,86.91
2022-10-16T05:30:52.827Z,86.90
2022-10-16T05:33:24.782Z,86.80
2022-10-16T05:35:52.937Z,86.95
2022-10-16T05:38:20.980Z,86.89
2022-10-16T05:40:54.466Z,86.96
2022-10-16T05:43:22.691Z,87.10
2022-10-16T05:45:56.829Z,87.05
2022-10-16T05:48:25.086Z,87.06
2022-10-16T05:50:59.423Z,87.02
2022-10-16T05:53:27.451Z,86.97
2022-10-16T05:55:57.591Z,86.79
2022-10-16T05:58:26.647Z,86.91
2022-10-16T06:00:58.548Z,86.90
2022-10-16T06:03:26.724Z,86.86
2022-10-16T06:05:54.966Z,86.89
2022-10-16T06:08:24.276Z,86.83
2022-10-16T06:11:04.874Z,86.70
2022-10-16T06:13:32.913Z,86.69
2022-10-16T06:16:01.749Z,86.72
2022-10-16T06:18:30.658Z,86.78
2022-10-16T06:20:59.233Z,86.38
2022-10-16T06:23:27.900Z,86.64
2022-10-16T06:25:55.897Z,86.79
2022-10-16T06:28:25.313Z,86.56
2022-10-16T06:31:04.209Z,86.37
2022-10-16T06:33:35.465Z,86.29
2022-10-16T06:36:04.022Z,86.40
2022-10-16T06:38:32.116Z,86.52
2022-10-16T06:41:00.383Z,86.66
2022-10-16T06:43:33.001Z,86.11
2022-10-16T06:46:02.208Z,86.49
2022-10-16T06:48:30.763Z,86.02
2022-10-16T06:51:00.361Z,85.98
2022-10-16T06:53:36.055Z,86.31
2022-10-16T06:56:12.261Z,85.81
2022-10-16T06:58:42.201Z,86.08
2022-10-16T07:01:10.406Z,86.13
2022-10-16T07:03:39.209Z,86.24
2022-10-16T07:06:09.170Z,85.95
2022-10-16T07:08:38.244Z,86.13
2022-10-16T07:11:08.724Z,85.92
2022-10-16T07:13:37.161Z,85.77
2022-10-16T07:16:10.845Z,85.80
2022-10-16T07:18:40.012Z,86.08
2022-10-16T07:21:09.176Z,86.16
2022-10-16T07:23:37.984Z,85.71
2022-10-16T07:26:06.655Z,85.82
2022-10-16T07:28:35.416Z,85.85
2022-10-16T07:31:04.129Z,85.54
2022-10-16T07:33:34.143Z,85.79
2022-10-16T07:36:02.513Z,85.83
2022-10-16T07:38:30.590Z,85.49
2022-10-16T07:40:59.936Z,85.40
2022-10-16T07:43:28.655Z,85.58
2022-10-16T07:45:58.238Z,85.44
2022-10-16T07:48:30.187Z,85.24
2022-10-16T07:51:01.231Z,85.15
2022-10-16T07:53:29.470Z,85.27
2022-10-16T07:56:00.018Z,85.27
2022-10-16T07:58:28.192Z,84.99
2022-10-16T08:00:56.333Z,84.74
2022-10-16T08:03:24.739Z,84.89
2022-10-16T08:05:53.129Z,84.44
2022-10-16T08:08:22.517Z,84.77
2022-10-16T08:10:50.634Z,84.79
2022-10-16T08:13:18.658Z,84.78
2022-10-16T08:15:47.243Z,84.45
2022-10-16T08:18:16.370Z,84.43
2022-10-16T08:20:45.122Z,84.20
2022-10-16T08:23:14.262Z,84.44
2022-10-16T08:25:44.152Z,83.84
2022-10-16T08:28:13.072Z,83.84
2022-10-16T08:30:41.275Z,83.65
2022-10-16T08:33:09.262Z,83.90
2022-10-16T08:35:37.259Z,83.63
2022-10-16T08:38:05.429Z,83.55
2022-10-16T08:40:35.409Z,83.25
2022-10-16T08:43:27.828Z,82.85
2022-10-16T08:46:26.717Z,83.30
2022-10-16T08:48:56.921Z,83.03
2022-10-16T08:51:27.504Z,82.83
2022-10-16T08:53:57.771Z,82.75
2022-10-16T08:56:26.468Z,82.61
2022-10-16T08:58:59.985Z,82.67
2022-10-16T09:01:39.911Z,82.24
2022-10-16T09:04:35.134Z,82.19
2022-10-16T09:07:06.848Z,82.18
2022-10-16T09:10:07.002Z,81.33
2022-10-16T09:12:39.007Z,81.54
2022-10-16T09:15:20.996Z,81.45
2022-10-16T09:17:55.219Z,81.45
2022-10-16T09:20:36.703Z,80.96
2022-10-16T09:23:16.377Z,80.83
2022-10-16T09:25:48.871Z,80.50
2022-10-16T09:28:17.701Z,80.85
2022-10-16T09:30:49.375Z,80.84
2022-10-16T09:33:18.316Z,80.83
2022-10-16T09:35:47.540Z,80.79
2022-10-16T09:38:27.809Z,80.14
2022-10-16T09:40:59.249Z,79.92
2022-10-16T09:43:36.275Z,79.11
2022-10-16T09:46:07.524Z,79.43
2022-10-16T09:48:39.222Z,79.84
2022-10-16T09:51:18.476Z,79.65
2022-10-16T09:53:48.034Z,79.86
2022-10-16T09:56:24.622Z,79.95
2022-10-16T09:58:53.608Z,80.14
2022-10-16T10:01:24.945Z,80.18
2022-10-16T10:03:54.245Z,80.31
2022-10-16T10:06:28.187Z,80.60
2022-10-16T10:09:01.712Z,80.96
2022-10-16T10:11:53.434Z,80.63
2022-10-16T10:14:30.983Z,80.67
2022-10-16T10:17:21.860Z,80.63
2022-10-16T10:19:52.893Z,80.63
2022-10-16T10:22:25.278Z,81.01
2022-10-16T10:25:20.987Z,80.86
2022-10-16T10:27:58.787Z,80.88
2022-10-16T10:30:30.635Z,79.93
2022-10-16T10:33:24.661Z,79.62
2022-10-16T10:35:59.081Z,79.71
2022-10-16T10:38:33.113Z,79.42
2022-10-16T10:41:15.141Z,79.30
2022-10-16T10:43:54.807Z,78.71
2022-10-16T10:46:30.981Z,78.77
2022-10-16T10:49:11.820Z,78.87
2022-10-16T10:51:44.680Z,78.99
2022-10-16T10:54:21.146Z,79.10
2022-10-16T10:56:54.203Z,78.97
2022-10-16T10:59:34.637Z,79.17
2022-10-16T11:02:06.390Z,79.01
2022-10-16T11:05:04.278Z,79.41
2022-10-16T11:07:34.842Z,79.18
2022-10-16T11:10:07.169Z,79.29
2022-10-16T11:12:38.435Z,79.33
2022-10-16T11:15:13.689Z,78.81
2022-10-16T11:17:44.186Z,78.82
2022-10-16T11:20:18.312Z,78.80
2022-10-16T11:22:50.309Z,78.76
2022-10-16T11:25:22.663Z,78.84
2022-10-16T11:27:54.008Z,78.67
2022-10-16T11:30:24.027Z,78.84
2022-10-16T11:33:00.605Z,78.60
2022-10-16T11:35:40.095Z,78.89
2022-10-16T11:38:14.685Z,78.97
2022-10-16T11:40:45.753Z,79.06
2022-10-16T11:43:17.363Z,79.03
2022-10-16T11:45:48.722Z,78.92
2022-10-16T11:48:23.748Z,78.15
2022-10-16T11:50:55.180Z,78.08
2022-10-16T11:53:28.251Z,77.98
2022-10-16T11:55:56.542Z,77.78
2022-10-16T11:58:28.931Z,77.11
2022-10-16T12:01:03.639Z,77.19
2022-10-16T12:03:35.926Z,77.27
2022-10-16T12:06:21.408Z,76.96
2022-10-16T12:08:49.701Z,77.38
2022-10-16T12:11:32.655Z,77.19
2022-10-16T12:14:22.698Z,77.17
2022-10-16T12:16:56.471Z,78.00
2022-10-16T12:19:26.197Z,77.89
2022-10-16T12:21:58.304Z,77.52
2022-10-16T12:24:45.190Z,78.01
2022-10-16T12:27:25.787Z,77.25
2022-10-16T12:29:57.826Z,77.03
2022-10-16T12:32:47.333Z,77.09
2022-10-16T12:35:21.374Z,77.31
2022-10-16T12:37:50.967Z,77.16
2022-10-16T12:40:28.325Z,76.70
2022-10-16T12:42:56.347Z,76.62
2022-10-16T12:45:30.667Z,76.79
2022-10-16T12:47:59.616Z,76.79
2022-10-16T12:50:33.780Z,76.71
2022-10-16T12:53:05.900Z,76.66
2022-10-16T12:55:45.436Z,76.78
2022-10-16T12:58:28.245Z,76.68
2022-10-16T13:00:59.438Z,76.73
2022-10-16T13:04:12.305Z,76.89
2022-10-16T13:06:44.384Z,77.08
2022-10-16T13:09:48.392Z,77.18
2022-10-16T13:12:25.245Z,77.13
2022-10-16T13:15:07.938Z,77.14
2022-10-16T13:17:42.073Z,77.31
2022-10-16T13:20:19.415Z,77.36
2022-10-16T13:22:56.611Z,77.52
2022-10-16T13:25:35.207Z,77.66
2022-10-16T13:28:04.414Z,76.80
2022-10-16T13:30:35.872Z,76.25
2022-10-16T13:33:07.217Z,76.11
2022-10-16T13:35:37.207Z,76.15
2022-10-16T13:38:14.612Z,76.13
2022-10-16T13:40:57.578Z,75.66
2022-10-16T13:43:29.935Z,75.73
2022-10-16T13:45:59.802Z,75.62
2022-10-16T13:48:27.992Z,76.11
2022-10-16T13:51:04.267Z,75.86
2022-10-16T13:53:33.949Z,75.74
2022-10-16T13:56:04.980Z,75.62
2022-10-16T13:58:33.144Z,75.90
2022-10-16T14:01:02.507Z,75.72
2022-10-16T14:03:31.029Z,75.94
2022-10-16T14:06:00.842Z,76.00
2022-10-16T14:08:30.589Z,76.14
2022-10-16T14:11:00.306Z,76.12
2022-10-16T14:13:33.441Z,75.81
2022-10-16T14:16:04.787Z,76.28
2022-10-16T14:18:33.640Z,76.32
2022-10-16T14:21:08.728Z,76.56
2022-10-16T14:23:39.300Z,76.63
2022-10-16T14:26:18.656Z,76.53
2022-10-16T14:28:49.652Z,76.54
2022-10-16T14:31:32.302Z,76.64
2022-10-16T14:34:01.555Z,76.60
2022-10-16T14:36:30.617Z,76.74
2022-10-16T14:39:04.780Z,76.70
2022-10-16T14:41:34.276Z,76.93
2022-10-16T14:44:05.848Z,76.77
2022-10-16T14:46:36.799Z,77.29
2022-10-16T14:49:08.368Z,77.07
2022-10-16T14:51:36.679Z,77.29
2022-10-16T14:54:05.335Z,77.48
2022-10-16T14:56:36.249Z,77.88
2022-10-16T14:59:05.715Z,77.45
2022-10-16T15:01:33.731Z,77.51
2022-10-16T15:04:01.736Z,77.75
2022-10-16T15:06:29.911Z,77.68
2022-10-16T15:08:57.905Z,77.63
2022-10-16T15:11:25.982Z,77.67
2022-10-16T15:13:54.000Z,77.95
2022-10-16T15:16:23.409Z,77.76
2022-10-16T15:18:51.444Z,77.78
2022-10-16T15:21:28.196Z,77.80
2022-10-16T15:23:57.432Z,77.69
2022-10-16T15:26:26.019Z,77.60
2022-10-16T15:28:54.104Z,77.69
2022-10-16T15:31:23.533Z,77.65
2022-10-16T15:33:54.538Z,77.70
2022-10-16T15:36:29.666Z,77.87
2022-10-16T15:38:57.827Z,78.21
2022-10-16T15:41:25.829Z,78.26
2022-10-16T15:43:54.275Z,78.12
2022-10-16T15:46:25.179Z,77.98
2022-10-16T15:48:57.612Z,78.40
2022-10-16T15:51:26.252Z,77.97
2022-10-16T15:53:54.831Z,78.14
2022-10-16T15:56:23.152Z,78.31
2022-10-16T15:58:51.251Z,78.35
2022-10-16T16:01:19.318Z,78.45
2022-10-16T16:03:54.340Z,78.36
2022-10-16T16:06:22.613Z,78.65
2022-10-16T16:08:50.698Z,78.75
2022-10-16T16:11:19.655Z,78.67
2022-10-16T16:13:47.706Z,79.00
2022-10-16T16:16:17.535Z,78.71
2022-10-16T16:18:46.757Z,79.01
2022-10-16T16:21:16.164Z,79.18
2022-10-16T16:23:44.169Z,79.08
2022-10-16T16:26:13.874Z,79.10
2022-10-16T16:28:43.460Z,79.44
2022-10-16T16:31:11.895Z,79.34
2022-10-16T16:33:39.925Z,79.59
2022-10-16T16:36:14.551Z,79.21
2022-10-16T16:38:44.969Z,79.66
2022-10-16T16:41:14.405Z,79.51
2022-10-16T16:43:42.686Z,79.40
2022-10-16T16:46:10.743Z,79.39
2022-10-16T16:48:39.097Z,79.67
2022-10-16T16:51:07.419Z,79.57
2022-10-16T16:53:36.415Z,79.86
2022-10-16T16:56:06.929Z,79.75
2022-10-16T16:58:35.385Z,79.93
2022-10-16T17:01:20.733Z,80.28
2022-10-16T17:03:52.634Z,80.07
2022-10-16T17:06:21.731Z,80.21
2022-10-16T17:08:50.892Z,80.21
2022-10-16T17:11:21.680Z,80.02
2022-10-16T17:13:53.937Z,80.24
2022-10-16T17:16:25.099Z,80.33
2022-10-16T17:18:53.931Z,80.32
2022-10-16T17:21:22.727Z,80.28
2022-10-16T17:23:53.235Z,80.42
2022-10-16T17:26:22.666Z,80.51
2022-10-16T17:28:53.504Z,80.75
2022-10-16T17:31:23.549Z,80.83
2022-10-16T17:33:52.579Z,80.85
2022-10-16T17:36:21.193Z,80.94
2022-10-16T17:38:49.665Z,80.88
2022-10-16T17:41:19.325Z,80.93
2022-10-16T17:43:49.405Z,80.92
2022-10-16T17:46:19.125Z,81.11
2022-10-16T17:48:49.021Z,80.99
2022-10-16T17:51:19.035Z,81.08
2022-10-16T17:53:49.970Z,81.29
2022-10-16T17:56:18.023Z,81.34
2022-10-16T17:58:51.457Z,81.28
2022-10-16T18:01:22.898Z,81.70
2022-10-16T18:03:52.268Z,81.40
2022-10-16T18:06:23.221Z,81.65
2022-10-16T18:08:51.532Z,81.89
2022-10-16T18:11:19.845Z,81.64
2022-10-16T18:13:48.265Z,81.89
2022-10-16T18:16:16.911Z,82.06
2022-10-16T18:18:46.412Z,81.93
2022-10-16T18:21:16.440Z,82.02
2022-10-16T18:23:50.735Z,82.23
2022-10-16T18:26:21.125Z,82.26
2022-10-16T18:28:50.935Z,82.09
2022-10-16T18:31:19.086Z,82.30
2022-10-16T18:33:50.568Z,82.20
2022-10-16T18:36:19.872Z,82.10
2022-10-16T18:38:48.058Z,82.45
2022-10-16T18:41:16.090Z,82.38
2022-10-16T18:43:44.146Z,82.40
2022-10-16T18:46:13.728Z,82.66
2022-10-16T18:48:42.050Z,82.62
2022-10-16T18:51:14.236Z,82.65
2022-10-16T18:53:44.063Z,82.71
2022-10-16T18:56:14.882Z,82.76
2022-10-16T18:58:44.361Z,82.58
2022-10-16T19:01:16.499Z,82.75
2022-10-16T19:03:45.114Z,82.88
2022-10-16T19:06:16.111Z,82.86
2022-10-16T19:08:44.518Z,82.92
2022-10-16T19:11:15.007Z,82.68
2022-10-16T19:13:43.667Z,82.84
2022-10-16T19:16:20.305Z,82.69
2022-10-16T19:18:49.363Z,83.02
2022-10-16T19:21:19.394Z,82.93
2022-10-16T19:23:47.618Z,83.09
2022-10-16T19:26:18.507Z,83.20
2022-10-16T19:28:46.664Z,83.15
2022-10-16T19:31:17.197Z,83.24
2022-10-16T19:33:45.275Z,83.10
2022-10-16T19:36:15.469Z,83.02
2022-10-16T19:38:45.652Z,83.20
2022-10-16T19:41:15.363Z,83.01
2022-10-16T19:43:44.082Z,83.43
2022-10-16T19:46:14.176Z,83.42
2022-10-16T19:48:42.499Z,83.37
2022-10-16T19:51:14.641Z,83.13
2022-10-16T19:53:44.342Z,83.40
2022-10-16T19:56:15.923Z,83.45
2022-10-16T19:58:44.965Z,83.46
2022-10-16T20:01:14.025Z,83.77
2022-10-16T20:03:43.821Z,83.83
2022-10-16T20:06:11.863Z,83.78
2022-10-16T20:08:41.337Z,83.65
2022-10-16T20:11:14.875Z,83.67
2022-10-16T20:13:43.180Z,83.53
2022-10-16T20:16:12.351Z,83.77
2022-10-16T20:18:40.347Z,83.70
2022-10-16T20:21:10.856Z,83.65
2022-10-16T20:23:38.927Z,83.57
2022-10-16T20:26:07.248Z,83.56
2022-10-16T20:28:36.708Z,83.62
2022-10-16T20:31:07.801Z,83.79
2022-10-16T20:33:35.840Z,83.97
2022-10-16T20:36:03.938Z,83.84
2022-10-16T20:38:32.075Z,84.04
2022-10-16T20:41:04.823Z,83.81
2022-10-16T20:43:32.938Z,83.98
2022-10-16T20:46:03.563Z,83.83
2022-10-16T20:48:31.964Z,83.86
2022-10-16T20:51:00.591Z,83.81
2022-10-16T20:53:28.615Z,83.94
2022-10-16T20:55:56.653Z,83.90
2022-10-16T20:58:24.613Z,84.07
2022-10-16T21:00:52.644Z,84.03
2022-10-16T21:03:22.027Z,83.96
2022-10-16T21:05:50.033Z,84.15
2022-10-16T21:08:18.059Z,84.04
2022-10-16T21:10:46.063Z,84.38
2022-10-16T21:13:14.075Z,84.26
2022-10-16T21:15:42.059Z,84.11
2022-10-16T21:18:10.073Z,84.17
2022-10-16T21:20:43.264Z,84.28
2022-10-16T21:23:11.294Z,84.06
2022-10-16T21:25:39.262Z,84.21
2022-10-16T21:28:07.244Z,84.40
2022-10-16T21:30:35.315Z,84.50
2022-10-16T21:33:03.285Z,84.42
2022-10-16T21:35:32.279Z,84.33
2022-10-16T21:38:01.772Z,84.35
2022-10-16T21:40:30.778Z,84.36
2022-10-16T21:42:58.820Z,84.15
2022-10-16T21:45:26.853Z,84.10
2022-10-16T21:50:27.794Z,84.39
2022-10-16T21:52:55.809Z,84.49
2022-10-16T21:55:25.156Z,84.50
2022-10-16T21:57:53.179Z,84.33
2022-10-16T22:00:21.293Z,84.29
2022-10-16T22:02:49.305Z,84.68
2022-10-16T22:05:17.335Z,84.55
2022-10-16T22:07:45.328Z,84.65
2022-10-16T22:10:13.333Z,84.69
2022-10-16T22:12:42.647Z,84.60
2022-10-16T22:15:12.018Z,84.81
2022-10-16T22:17:40.062Z,84.80
2022-10-16T22:20:09.475Z,84.66
2022-10-16T22:22:37.517Z,84.80
2022-10-16T22:25:06.126Z,84.66
2022-10-16T22:27:34.143Z,84.64
2022-10-16T22:30:03.560Z,85.12
2022-10-16T22:32:33.376Z,84.67
2022-10-16T22:35:01.386Z,84.74
2022-10-16T22:37:29.730Z,84.63
2022-10-16T22:40:00.928Z,84.47
2022-10-16T22:42:29.295Z,84.71
2022-10-16T22:44:57.285Z,84.50
2022-10-16T22:47:26.974Z,84.67
2022-10-16T22:49:55.621Z,84.70
2022-10-16T22:52:23.599Z,84.64
2022-10-16T22:54:51.616Z,84.49
2022-10-16T22:57:19.593Z,84.65
2022-10-16T22:59:48.470Z,84.93
2022-10-16T23:02:16.511Z,84.80
2022-10-16T23:04:45.864Z,84.67
2022-10-16T23:07:13.915Z,84.77
2022-10-16T23:09:41.914Z,84.99
2022-10-16T23:12:09.927Z,84.93
2022-10-16T23:14:37.924Z,85.00
2022-10-16T23:17:05.905Z,84.99
2022-10-16T23:19:33.929Z,85.24
2022-10-16T23:22:03.331Z,85.19
2022-10-16T23:24:31.742Z,85.14
2022-10-16T23:26:59.788Z,84.99
2022-10-16T23:29:27.836Z,85.07
2022-10-16T23:31:56.085Z,84.85
2022-10-16T23:34:24.244Z,84.99
2022-10-16T23:36:52.395Z,84.79
2022-10-16T23:39:21.743Z,84.74
2022-10-16T23:41:49.779Z,84.65
2022-10-16T23:44:17.913Z,84.51
2022-10-16T23:46:45.872Z,84.33
2022-10-16T23:49:13.899Z,84.32
2022-10-16T23:51:41.917Z,84.32
2022-10-16T23:54:09.938Z,84.17
2022-10-16T23:56:39.332Z,84.31
2022-10-16T23:59:07.339Z,84.44
